createdAt,value
2019-02-05T00:02:09.367Z,102318.41
2019-02-05T00:04:39.633Z,102318.36
2019-02-05T00:07:09.901Z,102317.97
2019-02-05T00:09:40.162Z,102315.35
2019-02-05T00:12:10.662Z,102308.47
2019-02-05T00:14:41.011Z,102321.19
2019-02-05T00:17:11.339Z,102312.55
2019-02-05T00:19:41.627Z,102316.19
2019-02-05T00:22:11.966Z,102314.48
2019-02-05T00:24:42.604Z,102307.56
2019-02-05T00:27:12.895Z,102303.67
2019-02-05T00:29:43.239Z,102308.95
2019-02-05T00:32:13.505Z,102307.65
2019-02-05T00:34:43.783Z,102306.34
2019-02-05T00:37:14.047Z,102298.04
2019-02-05T00:39:44.307Z,102299.78
2019-02-05T00:42:14.563Z,102302.02
2019-02-05T00:44:44.918Z,102297.27
2019-02-05T00:47:15.180Z,102286.24
2019-02-05T00:49:45.453Z,102279.39
2019-02-05T00:52:15.983Z,102276.73
2019-02-05T00:54:46.250Z,102277.27
2019-02-05T00:57:17.598Z,102281.23
2019-02-05T00:59:47.931Z,102270.75
2019-02-05T01:02:18.268Z,102272.53
2019-02-05T01:04:48.529Z,102264.72
2019-02-05T01:07:18.862Z,102264.77
2019-02-05T01:09:49.135Z,102259.92
2019-02-05T01:12:19.398Z,102262.16
2019-02-05T01:14:49.658Z,102263.89
2019-02-05T01:17:19.994Z,102259.52
2019-02-05T01:19:50.425Z,102244.19
2019-02-05T01:22:20.704Z,102244.66
2019-02-05T01:24:51.002Z,102240.65
2019-02-05T01:27:22.246Z,102234.52
2019-02-05T01:29:52.883Z,102234.87
2019-02-05T01:32:23.631Z,102236.14
2019-02-05T01:34:53.897Z,102226.96
2019-02-05T01:37:24.156Z,102222.55
2019-02-05T01:39:54.502Z,102223.46
2019-02-05T01:42:24.894Z,102221.58
2019-02-05T01:44:56.696Z,102228.91
2019-02-05T01:47:26.957Z,102219.69
2019-02-05T01:49:57.296Z,102220.53
2019-02-05T01:52:27.627Z,102220.52
2019-02-05T01:54:57.901Z,102220.48
2019-02-05T01:57:28.163Z,102214.75
2019-02-05T01:59:58.818Z,102214.66
2019-02-05T02:02:29.211Z,102212.44
2019-02-05T02:04:59.574Z,102208.88
2019-02-05T02:07:32.780Z,102211.07
2019-02-05T02:10:03.214Z,102214.13
2019-02-05T02:12:33.824Z,102211.91
2019-02-05T02:15:06.053Z,102213.55
2019-02-05T02:17:36.327Z,102210.01
2019-02-05T02:20:14.992Z,102212.97
2019-02-05T02:22:45.545Z,102213.74
2019-02-05T02:25:16.201Z,102213.21
2019-02-05T02:27:47.245Z,102208.80
2019-02-05T02:30:23.477Z,102215.74
2019-02-05T02:32:53.950Z,102217.00
2019-02-05T02:35:24.216Z,102208.17
2019-02-05T02:37:54.935Z,102210.24
2019-02-05T02:40:25.189Z,102200.98
2019-02-05T02:42:55.544Z,102204.42
2019-02-05T02:45:25.805Z,102195.64
2019-02-05T02:47:57.148Z,102179.20
2019-02-05T02:50:27.404Z,102172.28
2019-02-05T02:52:57.763Z,102169.31
2019-02-05T02:55:28.083Z,102162.81
2019-02-05T02:57:58.423Z,102159.84
2019-02-05T03:00:28.700Z,102152.44
2019-02-05T03:02:59.034Z,102157.72
2019-02-05T03:05:29.742Z,102165.96
2019-02-05T03:08:00.101Z,102159.41
2019-02-05T03:10:31.103Z,102157.67
2019-02-05T03:13:01.411Z,102145.45
2019-02-05T03:15:31.651Z,102151.56
2019-02-05T03:18:01.939Z,102138.47
2019-02-05T03:20:32.728Z,102141.52
2019-02-05T03:23:02.992Z,102136.67
2019-02-05T03:25:33.258Z,102137.01
2019-02-05T03:28:03.546Z,102147.97
2019-02-05T03:30:33.790Z,102151.45
2019-02-05T03:33:04.089Z,102150.93
2019-02-05T03:35:34.342Z,102145.70
2019-02-05T03:38:04.664Z,102132.08
2019-02-05T03:40:38.217Z,102113.73
2019-02-05T03:43:08.474Z,102115.05
2019-02-05T03:45:38.748Z,102110.64
2019-02-05T03:48:09.033Z,102117.19
2019-02-05T03:50:46.940Z,102120.67
2019-02-05T03:53:53.360Z,102115.30
2019-02-05T03:56:46.273Z,102122.66
2019-02-05T03:59:28.440Z,102121.70
2019-02-05T04:02:11.173Z,102124.26
2019-02-05T04:04:47.967Z,102124.60
2019-02-05T04:07:21.497Z,102118.94
2019-02-05T04:10:00.512Z,102112.29
2019-02-05T04:12:34.051Z,102117.57
2019-02-05T04:15:10.673Z,102114.19
2019-02-05T04:17:47.179Z,102110.69
2019-02-05T04:20:20.724Z,102118.55
2019-02-05T04:23:11.009Z,102112.09
2019-02-05T04:25:56.741Z,102101.09
2019-02-05T04:28:39.128Z,102103.33
2019-02-05T04:31:24.811Z,102098.08
2019-02-05T04:34:04.034Z,102100.31
2019-02-05T04:36:52.320Z,102095.95
2019-02-05T04:39:34.569Z,102099.34
2019-02-05T04:42:19.513Z,102099.79
2019-02-05T04:44:53.327Z,102095.77
2019-02-05T04:47:45.227Z,102098.37
2019-02-05T04:50:22.825Z,102105.02
2019-02-05T04:53:08.306Z,102095.07
2019-02-05T04:55:58.427Z,102088.97
2019-02-05T04:58:41.041Z,102092.55
2019-02-05T05:01:17.361Z,102086.02
2019-02-05T05:03:50.904Z,102075.67
2019-02-05T05:06:45.551Z,102080.04
2019-02-05T05:09:19.091Z,102092.30
2019-02-05T05:11:49.358Z,102082.70
2019-02-05T05:14:19.650Z,102080.47
2019-02-05T05:16:49.929Z,102093.56
2019-02-05T05:19:20.486Z,102092.69
2019-02-05T05:21:50.777Z,102092.16
2019-02-05T05:24:21.068Z,102089.50
2019-02-05T05:26:51.361Z,102082.81
2019-02-05T05:29:21.634Z,102088.39
2019-02-05T05:31:51.974Z,102084.80
2019-02-05T05:34:22.748Z,102088.28
2019-02-05T05:36:52.103Z,102091.68
2019-02-05T05:39:22.405Z,102088.55
2019-02-05T05:41:52.863Z,102086.75
2019-02-05T05:44:23.143Z,102094.05
2019-02-05T05:46:53.435Z,102107.86
2019-02-05T05:49:24.023Z,102111.20
2019-02-05T05:51:54.326Z,102105.91
2019-02-05T05:54:24.626Z,102111.58
2019-02-05T05:56:54.923Z,102114.47
2019-02-05T05:59:25.231Z,102113.99
2019-02-05T06:01:55.503Z,102111.33
2019-02-05T06:04:26.116Z,102105.98
2019-02-05T06:06:56.408Z,102106.70
2019-02-05T06:09:26.722Z,102109.75
2019-02-05T06:11:56.988Z,102108.81
2019-02-05T06:14:27.305Z,102106.11
2019-02-05T06:16:57.553Z,102106.05
2019-02-05T06:19:28.192Z,102100.77
2019-02-05T06:21:58.477Z,102109.11
2019-02-05T06:24:28.776Z,102101.69
2019-02-05T06:26:59.086Z,102101.64
2019-02-05T06:29:29.393Z,102106.98
2019-02-05T06:31:59.681Z,102103.48
2019-02-05T06:34:29.979Z,102102.66
2019-02-05T06:37:00.333Z,102103.88
2019-02-05T06:39:30.620Z,102102.55
2019-02-05T06:42:00.903Z,102102.55
2019-02-05T06:44:31.240Z,102103.38
2019-02-05T06:47:01.514Z,102104.69
2019-02-05T06:49:31.826Z,102101.15
2019-02-05T06:52:02.110Z,102089.81
2019-02-05T06:54:32.583Z,102096.40
2019-02-05T06:57:02.848Z,102089.33
2019-02-05T06:59:33.212Z,102082.35
2019-02-05T07:02:03.497Z,102073.64
2019-02-05T07:04:33.806Z,102074.13
2019-02-05T07:07:04.189Z,102057.17
2019-02-05T07:09:34.607Z,102043.63
2019-02-05T07:12:05.104Z,102055.50
2019-02-05T07:14:35.520Z,102058.49
2019-02-05T07:17:05.856Z,102065.58
2019-02-05T07:19:36.279Z,102074.45
2019-02-05T07:22:08.147Z,102069.09
2019-02-05T07:24:38.862Z,102066.48
2019-02-05T07:27:13.248Z,102065.52
2019-02-05T07:29:43.578Z,102070.34
2019-02-05T07:32:14.179Z,102072.84
2019-02-05T07:34:44.541Z,102076.73
2019-02-05T07:37:15.542Z,102081.57
2019-02-05T07:39:46.353Z,102076.78
2019-02-05T07:42:16.716Z,102080.55
2019-02-05T07:44:47.055Z,102076.83
2019-02-05T07:47:17.703Z,102075.62
2019-02-05T07:49:47.986Z,102069.28
2019-02-05T07:52:18.258Z,102070.97
2019-02-05T07:54:48.560Z,102070.79
2019-02-05T07:57:18.845Z,102070.86
2019-02-05T07:59:49.151Z,102072.58
2019-02-05T08:02:19.423Z,102067.51
2019-02-05T08:04:49.742Z,102077.70
2019-02-05T08:07:20.161Z,102071.00
2019-02-05T08:09:50.521Z,102070.29
2019-02-05T08:12:20.797Z,102078.28
2019-02-05T08:14:51.086Z,102077.16
2019-02-05T08:17:21.368Z,102073.27
2019-02-05T08:19:51.641Z,102078.52
2019-02-05T08:22:21.978Z,102076.44
2019-02-05T08:24:52.236Z,102081.64
2019-02-05T08:27:25.790Z,102080.41
2019-02-05T08:29:56.069Z,102071.50
2019-02-05T08:32:26.343Z,102069.78
2019-02-05T08:34:56.787Z,102076.82
2019-02-05T08:37:27.055Z,102070.29
2019-02-05T08:39:58.963Z,102076.94
2019-02-05T08:42:29.218Z,102067.66
2019-02-05T08:44:59.476Z,102074.30
2019-02-05T08:47:29.769Z,102074.66
2019-02-05T08:50:00.588Z,102074.61
2019-02-05T08:52:30.889Z,102081.72
2019-02-05T08:55:01.346Z,102086.12
2019-02-05T08:57:31.606Z,102084.47
2019-02-05T09:00:02.008Z,102081.21
2019-02-05T09:02:34.145Z,102087.97
2019-02-05T09:05:06.662Z,102074.10
2019-02-05T09:07:37.129Z,102079.75
2019-02-05T09:10:10.790Z,102085.34
2019-02-05T09:12:41.120Z,102084.64
2019-02-05T09:15:12.578Z,102082.58
2019-02-05T09:17:43.212Z,102084.54
2019-02-05T09:20:18.321Z,102079.31
2019-02-05T09:22:48.728Z,102070.16
2019-02-05T09:25:19.831Z,102075.91
2019-02-05T09:27:51.295Z,102079.59
2019-02-05T09:30:34.139Z,102082.73
2019-02-05T09:33:15.291Z,102079.62
2019-02-05T09:35:45.650Z,102073.46
2019-02-05T09:38:19.217Z,102073.39
2019-02-05T09:45:06.565Z,102076.70
2019-02-05T09:48:15.659Z,102069.58
2019-02-05T09:50:46.006Z,102075.23
2019-02-05T09:53:16.363Z,102068.77
2019-02-05T09:56:41.518Z,102067.91
2019-02-05T09:59:27.246Z,102066.20
2019-02-05T10:01:57.554Z,102065.62
2019-02-05T10:04:29.348Z,102063.90
2019-02-05T10:06:59.614Z,102065.22
2019-02-05T10:09:29.964Z,102058.67
2019-02-05T10:12:00.250Z,102053.78
2019-02-05T10:14:30.791Z,102049.81
2019-02-05T10:17:01.123Z,102056.41
2019-02-05T10:19:31.384Z,102051.19
2019-02-05T10:22:01.780Z,102046.75
2019-02-05T10:24:32.143Z,102038.52
2019-02-05T10:27:02.482Z,102035.45
2019-02-05T10:29:33.012Z,102029.44
2019-02-05T10:32:04.992Z,102032.50
2019-02-05T10:35:09.020Z,102038.23
2019-02-05T10:37:39.569Z,102035.64
2019-02-05T10:40:12.359Z,102042.63
2019-02-05T10:42:44.219Z,102037.34
2019-02-05T10:45:17.420Z,102038.27
2019-02-05T10:47:47.741Z,102040.45
2019-02-05T10:50:19.268Z,102034.75
2019-02-05T10:52:49.599Z,102027.72
2019-02-05T10:55:21.861Z,102034.69
2019-02-05T10:57:53.753Z,102033.36
2019-02-05T11:00:28.626Z,102032.89
2019-02-05T11:03:00.725Z,102026.70
2019-02-05T11:05:31.497Z,102032.86
2019-02-05T11:08:03.288Z,102034.63
2019-02-05T11:10:33.547Z,102040.80
2019-02-05T11:13:03.969Z,102029.34
2019-02-05T11:15:34.230Z,102032.41
2019-02-05T11:18:07.382Z,102030.63
2019-02-05T11:20:37.763Z,102018.28
2019-02-05T11:23:08.031Z,102029.26
2019-02-05T11:25:38.370Z,102033.20
2019-02-05T11:28:08.697Z,102030.52
2019-02-05T11:30:43.598Z,102035.42
2019-02-05T11:33:14.149Z,102027.05
2019-02-05T11:35:44.427Z,102028.38
2019-02-05T11:38:14.798Z,102027.50
2019-02-05T11:40:46.844Z,102024.81
2019-02-05T11:43:17.176Z,102034.41
2019-02-05T11:45:47.686Z,102024.75
2019-02-05T11:48:18.380Z,102018.59
2019-02-05T11:50:48.728Z,102017.19
2019-02-05T11:53:19.009Z,102017.54
2019-02-05T11:55:50.155Z,102023.67
2019-02-05T11:58:20.420Z,102023.63
2019-02-05T12:00:55.035Z,102023.66
2019-02-05T12:03:25.291Z,102020.55
2019-02-05T12:05:55.552Z,102015.28
2019-02-05T12:08:25.975Z,102021.84
2019-02-05T12:10:56.243Z,102020.12
2019-02-05T12:13:26.511Z,102008.70
2019-02-05T12:15:56.763Z,102011.38
2019-02-05T12:18:27.296Z,102011.80
2019-02-05T12:20:57.758Z,102010.91
2019-02-05T12:23:28.234Z,102014.42
2019-02-05T12:25:58.579Z,102005.19
2019-02-05T12:28:28.826Z,102002.14
2019-02-05T12:30:59.128Z,101997.72
2019-02-05T12:33:29.925Z,101999.48
2019-02-05T12:36:00.191Z,101993.39
2019-02-05T12:39:22.555Z,101992.50
2019-02-05T12:41:52.820Z,101994.72
2019-02-05T12:44:23.076Z,101999.98
2019-02-05T12:46:53.139Z,101998.67
2019-02-05T12:49:24.504Z,102000.89
2019-02-05T12:52:08.038Z,101990.77
2019-02-05T12:54:38.623Z,101989.03
2019-02-05T12:57:09.084Z,101984.62
2019-02-05T12:59:39.404Z,101985.05
2019-02-05T13:02:13.079Z,101980.66
2019-02-05T13:04:48.155Z,101977.14
2019-02-05T13:07:22.843Z,101977.14
2019-02-05T13:09:55.496Z,101971.89
2019-02-05T13:12:25.942Z,101969.69
2019-02-05T13:14:57.219Z,101974.52
2019-02-05T13:17:31.122Z,101967.05
2019-02-05T13:20:17.662Z,101968.38
2019-02-05T13:36:26.345Z,101977.59
2019-02-05T13:38:56.609Z,101979.35
2019-02-05T13:41:29.087Z,101974.97
2019-02-05T13:43:59.051Z,101982.86
2019-02-05T13:46:29.580Z,101978.03
2019-02-05T13:48:59.898Z,101981.98
2019-02-05T13:51:30.157Z,101979.76
2019-02-05T13:54:00.508Z,101985.45
2019-02-05T13:56:30.979Z,101987.20
2019-02-05T13:59:34.172Z,101994.66
2019-02-05T14:02:03.395Z,101993.33
2019-02-05T14:04:33.851Z,101994.64
2019-02-05T14:07:04.318Z,101994.23
2019-02-05T14:09:34.616Z,101999.50
2019-02-05T14:12:04.890Z,101989.86
2019-02-05T14:14:35.162Z,101988.55
2019-02-05T14:17:05.618Z,101988.12
2019-02-05T14:19:37.509Z,101987.67
2019-02-05T14:22:07.860Z,101989.42
2019-02-05T14:24:38.294Z,101985.87
2019-02-05T14:27:08.549Z,101988.50
2019-02-05T14:29:39.225Z,101990.27
2019-02-05T14:32:09.629Z,101999.48
2019-02-05T14:34:40.021Z,102001.69
2019-02-05T14:37:10.637Z,101999.45
2019-02-05T14:39:40.957Z,102006.47
2019-02-05T14:42:11.363Z,102006.89
2019-02-05T14:44:43.305Z,102008.20
2019-02-05T14:47:13.617Z,102005.12
2019-02-05T14:49:43.865Z,102012.13
2019-02-05T14:52:14.126Z,102016.08
2019-02-05T14:54:44.430Z,102011.70
2019-02-05T14:57:14.859Z,102012.55
2019-02-05T14:59:45.371Z,102015.61
2019-02-05T15:02:15.668Z,102013.86
2019-02-05T15:04:46.123Z,102019.13
2019-02-05T15:07:16.530Z,102019.09
2019-02-05T15:09:47.400Z,102014.28
2019-02-05T15:12:21.170Z,102016.02
2019-02-05T15:14:50.631Z,102014.69
2019-02-05T15:17:22.373Z,102017.33
2019-02-05T15:19:53.409Z,102017.33
2019-02-05T15:22:24.893Z,102019.55
2019-02-05T15:24:55.702Z,102024.34
2019-02-05T15:27:25.950Z,102015.55
2019-02-05T15:29:56.340Z,102019.97
2019-02-05T15:32:42.016Z,102016.91
2019-02-05T15:35:14.136Z,102012.92
2019-02-05T15:37:44.430Z,102016.84
2019-02-05T15:40:16.924Z,102013.34
2019-02-05T15:42:48.931Z,102004.55
2019-02-05T15:45:19.903Z,102004.98
2019-02-05T15:47:50.168Z,102008.91
2019-02-05T15:50:20.556Z,102006.23
2019-02-05T15:52:50.801Z,102009.27
2019-02-05T15:55:21.249Z,102011.00
2019-02-05T15:57:52.626Z,102012.27
2019-02-05T16:00:24.818Z,102022.77
2019-02-05T16:02:55.037Z,102016.16
2019-02-05T16:05:25.617Z,102021.45
2019-02-05T16:07:55.940Z,102019.71
2019-02-05T16:10:27.595Z,102017.95
2019-02-05T16:12:58.291Z,102014.88
2019-02-05T16:15:28.674Z,102015.33
2019-02-05T16:17:58.908Z,102013.96
2019-02-05T16:20:29.317Z,102022.67
2019-02-05T16:22:59.625Z,102020.89
2019-02-05T16:25:31.075Z,102019.08
2019-02-05T16:28:01.393Z,102016.42
2019-02-05T16:30:32.523Z,102020.81
2019-02-05T16:33:02.835Z,102022.56
2019-02-05T16:35:33.180Z,102022.12
2019-02-05T16:38:03.589Z,102020.39
2019-02-05T16:40:38.998Z,102021.73
2019-02-05T16:43:09.533Z,102024.38
2019-02-05T16:45:39.898Z,102020.44
2019-02-05T16:48:10.568Z,102030.08
2019-02-05T16:50:44.100Z,102024.38
2019-02-05T16:53:15.009Z,102029.66
2019-02-05T16:55:45.418Z,102027.05
2019-02-05T16:58:15.728Z,102026.18
2019-02-05T17:00:45.949Z,102022.67
2019-02-05T17:03:16.268Z,102029.24
2019-02-05T17:05:46.873Z,102030.53
2019-02-05T17:08:17.125Z,102027.91
2019-02-05T17:10:48.112Z,102034.50
2019-02-05T17:13:18.426Z,102038.88
2019-02-05T17:15:49.545Z,102041.53
2019-02-05T17:18:23.708Z,102045.95
2019-02-05T17:20:52.900Z,102047.67
2019-02-05T17:23:24.724Z,102044.63
2019-02-05T17:25:56.300Z,102049.47
2019-02-05T17:28:26.633Z,102042.45
2019-02-05T17:30:56.909Z,102043.33
2019-02-05T17:33:27.997Z,102043.33
2019-02-05T17:35:58.442Z,102046.84
2019-02-05T17:38:28.983Z,102043.80
2019-02-05T17:40:59.920Z,102046.41
2019-02-05T17:43:31.170Z,102051.70
2019-02-05T17:46:01.430Z,102049.94
2019-02-05T17:48:33.270Z,102050.41
2019-02-05T17:51:03.704Z,102049.99
2019-02-05T17:53:33.995Z,102049.97
2019-02-05T17:56:05.345Z,102052.62
2019-02-05T17:58:35.590Z,102052.61
2019-02-05T18:01:08.052Z,102050.42
2019-02-05T18:03:39.476Z,102047.80
2019-02-05T18:06:11.379Z,102046.92
2019-02-05T18:08:41.803Z,102050.03
2019-02-05T18:11:12.603Z,102051.30
2019-02-05T18:13:43.398Z,102052.64
2019-02-05T18:16:15.378Z,102054.42
2019-02-05T18:18:45.636Z,102059.27
2019-02-05T18:21:16.706Z,102056.63
2019-02-05T18:23:47.664Z,102060.11
2019-02-05T18:26:21.322Z,102059.23
2019-02-05T18:29:26.513Z,102064.52
2019-02-05T18:31:47.419Z,102064.52
2019-02-05T18:34:17.840Z,102061.48
2019-02-05T18:36:48.310Z,102060.16
2019-02-05T18:39:18.667Z,102055.33
2019-02-05T18:41:51.014Z,102053.58
2019-02-05T18:44:21.338Z,102060.61
2019-02-05T18:46:51.412Z,102064.55
2019-02-05T18:49:22.607Z,102054.49
2019-02-05T18:51:53.126Z,102067.20
2019-02-05T18:54:23.798Z,102058.44
2019-02-05T18:56:54.315Z,102067.23
2019-02-05T18:59:24.779Z,102058.46
2019-02-05T19:01:56.276Z,102054.07
2019-02-05T19:04:26.946Z,102060.66
2019-02-05T19:07:03.729Z,102063.72
2019-02-05T19:09:35.341Z,102063.70
2019-02-05T19:12:05.690Z,102056.23
2019-02-05T19:14:36.935Z,102062.38
2019-02-05T19:17:07.282Z,102065.89
2019-02-05T19:19:37.742Z,102059.75
2019-02-05T19:22:09.084Z,102065.45
2019-02-05T19:24:41.052Z,102064.16
2019-02-05T19:27:11.401Z,102074.69
2019-02-05T19:29:42.009Z,102073.39
2019-02-05T19:32:16.019Z,102072.97
2019-02-05T19:34:46.348Z,102079.09
2019-02-05T19:37:16.870Z,102082.61
2019-02-05T19:39:48.400Z,102083.08
2019-02-05T19:42:18.732Z,102075.62
2019-02-05T19:44:50.702Z,102075.19
2019-02-05T19:47:22.253Z,102078.67
2019-02-05T19:49:52.746Z,102083.08
2019-02-05T19:52:23.898Z,102081.73
2019-02-05T19:54:55.646Z,102081.31
2019-02-05T19:57:28.412Z,102083.03
2019-02-05T19:59:59.895Z,102088.34
2019-02-05T20:02:31.882Z,102084.83
2019-02-05T20:05:03.408Z,102082.64
2019-02-05T20:07:36.330Z,102082.20
2019-02-05T20:10:09.718Z,102077.34
2019-02-05T20:12:41.148Z,102080.00
2019-02-05T20:15:16.133Z,102067.30
2019-02-05T20:17:46.632Z,102066.44
2019-02-05T20:20:20.920Z,102074.33
2019-02-05T20:22:51.926Z,102071.28
2019-02-05T20:25:23.422Z,102074.41
2019-02-05T20:27:54.985Z,102077.88
2019-02-05T20:30:27.040Z,102078.77
2019-02-05T20:32:58.592Z,102083.61
2019-02-05T20:35:30.755Z,102089.28
2019-02-05T20:38:09.398Z,102084.45
2019-02-05T20:40:42.205Z,102077.41
2019-02-05T20:43:13.037Z,102088.86
2019-02-05T20:45:45.118Z,102088.83
2019-02-05T20:48:16.245Z,102084.03
2019-02-05T20:50:48.826Z,102093.68
2019-02-05T20:53:19.121Z,102094.14
2019-02-05T20:55:49.448Z,102090.17
2019-02-05T20:58:19.834Z,102095.88
2019-02-05T21:00:50.238Z,102094.13
2019-02-05T21:03:21.335Z,102092.36
2019-02-05T21:05:52.227Z,102094.99
2019-02-05T21:08:23.992Z,102091.49
2019-02-05T21:10:55.558Z,102094.97
2019-02-05T21:13:27.707Z,102103.75
2019-02-05T21:15:57.991Z,102110.77
2019-02-05T21:18:28.411Z,102107.72
2019-02-05T21:20:58.678Z,102111.69
2019-02-05T21:23:29.773Z,102120.02
2019-02-05T21:26:00.695Z,102118.30
2019-02-05T21:28:30.963Z,102116.97
2019-02-05T21:31:01.274Z,102107.31
2019-02-05T21:33:32.328Z,102114.33
2019-02-05T21:36:02.645Z,102113.04
2019-02-05T21:38:33.170Z,102120.09
2019-02-05T21:41:03.593Z,102116.11
2019-02-05T21:43:35.179Z,102120.09
2019-02-05T21:46:06.690Z,102117.44
2019-02-05T21:48:37.012Z,102121.39
2019-02-05T21:51:07.446Z,102120.96
2019-02-05T21:53:37.716Z,102112.19
2019-02-05T21:56:08.119Z,102111.75
2019-02-05T21:58:38.390Z,102113.49
2019-02-05T22:01:09.132Z,102109.59
2019-02-05T22:03:39.534Z,102120.14
2019-02-05T22:06:09.779Z,102114.02
2019-02-05T22:08:40.066Z,102117.50
2019-02-05T22:11:12.153Z,102114.86
2019-02-05T22:13:43.409Z,102114.89
2019-02-05T22:16:13.706Z,102109.20
2019-02-05T22:18:44.072Z,102110.96
2019-02-05T22:21:14.704Z,102110.95
2019-02-05T22:23:44.984Z,102109.16
2019-02-05T22:26:15.322Z,102115.78
2019-02-05T22:28:46.821Z,102107.00
2019-02-05T22:31:17.101Z,102101.73
2019-02-05T22:33:48.190Z,102103.95
2019-02-05T22:36:18.613Z,102100.86
2019-02-05T22:38:48.903Z,102105.23
2019-02-05T22:41:19.588Z,102097.80
2019-02-05T22:43:49.846Z,102085.50
2019-02-05T22:46:20.091Z,102086.83
2019-02-05T22:48:50.503Z,102088.14
2019-02-05T22:51:21.144Z,102089.48
2019-02-05T22:53:51.823Z,102074.09
2019-02-05T22:56:22.536Z,102080.64
2019-02-05T22:58:52.975Z,102084.55
2019-02-05T23:01:29.096Z,102085.81
2019-02-05T23:04:02.908Z,102080.11
2019-02-05T23:06:41.841Z,102085.38
2019-02-05T23:09:29.945Z,102085.81
2019-02-05T23:12:06.545Z,102087.13
2019-02-05T23:14:36.816Z,102075.27
2019-02-05T23:17:07.197Z,102078.84
2019-02-05T23:19:37.449Z,102080.61
2019-02-05T23:22:07.770Z,102078.84
2019-02-05T23:24:38.098Z,102087.66
2019-02-05T23:27:08.496Z,102085.89
2019-02-05T23:29:38.748Z,102085.03
2019-02-05T23:32:09.033Z,102085.91
2019-02-05T23:34:39.306Z,102091.17
2019-02-05T23:37:09.579Z,102088.09
2019-02-05T23:39:39.905Z,102092.48
2019-02-05T23:42:10.178Z,102093.81
2019-02-05T23:44:40.815Z,102084.13
2019-02-05T23:47:11.070Z,102089.42
2019-02-05T23:49:41.326Z,102098.22
2019-02-05T23:52:11.599Z,102095.57
2019-02-05T23:54:41.989Z,102097.80
2019-02-05T23:57:12.304Z,102095.61
2019-02-05T23:59:42.622Z,102095.61
